sensor_id;sensor_type;location;lat;lon;timestamp;P1;durP1;ratioP1;P2;durP2;ratioP2
48361;SDS011;34510;51.888;5.670;2023-05-10T00:02:01;845.72;;;738.60;;
48361;SDS011;34510;51.888;5.670;2023-05-10T00:07:04;845.97;;;738.47;;
48361;SDS011;34510;51.888;5.670;2023-05-10T00:12:09;845.33;;;741.28;;
48361;SDS011;34510;51.888;5.670;2023-05-10T00:17:11;842.70;;;728.13;;
48361;SDS011;34510;51.888;5.670;2023-05-10T00:22:14;851.95;;;750.53;;
48361;SDS011;34510;51.888;5.670;2023-05-10T00:27:16;847.92;;;742.55;;
48361;SDS011;34510;51.888;5.670;2023-05-10T00:32:19;840.30;;;735.22;;
48361;SDS011;34510;51.888;5.670;2023-05-10T00:37:23;847.05;;;752.15;;
48361;SDS011;34510;51.888;5.670;2023-05-10T00:42:25;839.78;;;735.33;;
48361;SDS011;34510;51.888;5.670;2023-05-10T00:47:29;839.58;;;734.95;;
48361;SDS011;34510;51.888;5.670;2023-05-10T00:52:31;844.28;;;734.20;;
48361;SDS011;34510;51.888;5.670;2023-05-10T00:57:34;840.67;;;738.15;;
48361;SDS011;34510;51.888;5.670;2023-05-10T01:02:37;834.08;;;717.97;;
48361;SDS011;34510;51.888;5.670;2023-05-10T01:07:40;835.38;;;723.72;;
48361;SDS011;34510;51.888;5.670;2023-05-10T01:12:44;835.28;;;716.33;;
48361;SDS011;34510;51.888;5.670;2023-05-10T01:17:49;832.15;;;705.83;;
48361;SDS011;34510;51.888;5.670;2023-05-10T01:28:17;855.90;;;745.70;;
48361;SDS011;34510;51.888;5.670;2023-05-10T01:33:39;842.40;;;723.22;;
48361;SDS011;34510;51.888;5.670;2023-05-10T01:39:08;845.22;;;715.97;;
48361;SDS011;34510;51.888;5.670;2023-05-10T01:49:50;858.08;;;725.60;;
48361;SDS011;34510;51.888;5.670;2023-05-10T01:55:00;847.83;;;718.95;;
48361;SDS011;34510;51.888;5.670;2023-05-10T02:00:06;845.47;;;709.55;;
48361;SDS011;34510;51.888;5.670;2023-05-10T02:05:28;852.08;;;734.17;;
48361;SDS011;34510;51.888;5.670;2023-05-10T02:10:32;841.33;;;728.75;;
48361;SDS011;34510;51.888;5.670;2023-05-10T02:15:37;839.00;;;726.17;;
48361;SDS011;34510;51.888;5.670;2023-05-10T02:20:41;855.97;;;744.22;;
48361;SDS011;34510;51.888;5.670;2023-05-10T02:25:46;845.00;;;724.85;;
48361;SDS011;34510;51.888;5.670;2023-05-10T02:30:49;836.97;;;701.35;;
48361;SDS011;34510;51.888;5.670;2023-05-10T02:35:56;841.15;;;726.58;;
48361;SDS011;34510;51.888;5.670;2023-05-10T02:41:08;840.67;;;726.97;;
48361;SDS011;34510;51.888;5.670;2023-05-10T02:46:16;844.08;;;721.47;;
48361;SDS011;34510;51.888;5.670;2023-05-10T02:51:18;843.08;;;714.47;;
48361;SDS011;34510;51.888;5.670;2023-05-10T02:56:25;840.83;;;719.97;;
48361;SDS011;34510;51.888;5.670;2023-05-10T03:01:32;842.67;;;729.47;;
48361;SDS011;34510;51.888;5.670;2023-05-10T03:06:34;840.13;;;688.90;;
48361;SDS011;34510;51.888;5.670;2023-05-10T03:16:43;850.28;;;717.85;;
48361;SDS011;34510;51.888;5.670;2023-05-10T03:21:50;843.80;;;721.28;;
48361;SDS011;34510;51.888;5.670;2023-05-10T03:26:55;845.00;;;712.75;;
48361;SDS011;34510;51.888;5.670;2023-05-10T03:32:00;860.78;;;728.55;;
48361;SDS011;34510;51.888;5.670;2023-05-10T03:37:04;844.97;;;716.70;;
48361;SDS011;34510;51.888;5.670;2023-05-10T03:42:06;850.60;;;712.78;;
48361;SDS011;34510;51.888;5.670;2023-05-10T03:47:08;838.47;;;713.53;;
48361;SDS011;34510;51.888;5.670;2023-05-10T03:52:11;842.42;;;697.63;;
48361;SDS011;34510;51.888;5.670;2023-05-10T03:57:14;823.33;;;686.60;;
48361;SDS011;34510;51.888;5.670;2023-05-10T04:02:16;833.53;;;703.10;;
48361;SDS011;34510;51.888;5.670;2023-05-10T04:07:25;842.72;;;720.03;;
48361;SDS011;34510;51.888;5.670;2023-05-10T04:12:34;841.53;;;696.20;;
48361;SDS011;34510;51.888;5.670;2023-05-10T04:17:36;842.10;;;704.13;;
48361;SDS011;34510;51.888;5.670;2023-05-10T04:22:39;833.88;;;696.58;;
48361;SDS011;34510;51.888;5.670;2023-05-10T04:27:41;846.38;;;720.03;;
48361;SDS011;34510;51.888;5.670;2023-05-10T04:32:45;846.50;;;713.58;;
48361;SDS011;34510;51.888;5.670;2023-05-10T04:37:47;848.75;;;722.78;;
48361;SDS011;34510;51.888;5.670;2023-05-10T04:42:49;844.35;;;703.80;;
48361;SDS011;34510;51.888;5.670;2023-05-10T04:47:52;848.13;;;708.25;;
48361;SDS011;34510;51.888;5.670;2023-05-10T04:52:55;851.42;;;730.10;;
48361;SDS011;34510;51.888;5.670;2023-05-10T04:57:59;841.35;;;701.08;;
48361;SDS011;34510;51.888;5.670;2023-05-10T05:03:02;850.22;;;706.55;;
48361;SDS011;34510;51.888;5.670;2023-05-10T05:08:04;855.05;;;725.10;;
48361;SDS011;34510;51.888;5.670;2023-05-10T05:13:06;848.53;;;727.05;;
48361;SDS011;34510;51.888;5.670;2023-05-10T05:18:11;850.28;;;724.50;;
48361;SDS011;34510;51.888;5.670;2023-05-10T05:23:13;854.50;;;739.50;;
48361;SDS011;34510;51.888;5.670;2023-05-10T05:28:15;835.53;;;726.30;;
48361;SDS011;34510;51.888;5.670;2023-05-10T05:33:20;840.55;;;717.78;;
48361;SDS011;34510;51.888;5.670;2023-05-10T05:38:21;826.53;;;707.63;;
48361;SDS011;34510;51.888;5.670;2023-05-10T05:43:24;826.47;;;706.72;;
48361;SDS011;34510;51.888;5.670;2023-05-10T05:48:27;818.72;;;715.92;;
48361;SDS011;34510;51.888;5.670;2023-05-10T05:53:37;832.67;;;724.70;;
48361;SDS011;34510;51.888;5.670;2023-05-10T05:58:39;822.53;;;724.80;;
48361;SDS011;34510;51.888;5.670;2023-05-10T06:03:41;817.03;;;724.13;;
48361;SDS011;34510;51.888;5.670;2023-05-10T06:08:44;819.22;;;728.53;;
48361;SDS011;34510;51.888;5.670;2023-05-10T06:13:53;815.15;;;726.97;;
48361;SDS011;34510;51.888;5.670;2023-05-10T06:18:55;828.47;;;738.38;;
48361;SDS011;34510;51.888;5.670;2023-05-10T06:23:58;827.67;;;737.83;;
48361;SDS011;34510;51.888;5.670;2023-05-10T06:29:00;839.60;;;739.97;;
48361;SDS011;34510;51.888;5.670;2023-05-10T06:34:11;836.78;;;727.97;;
48361;SDS011;34510;51.888;5.670;2023-05-10T06:39:13;836.90;;;731.92;;
48361;SDS011;34510;51.888;5.670;2023-05-10T06:44:17;840.38;;;735.05;;
48361;SDS011;34510;51.888;5.670;2023-05-10T06:49:20;840.95;;;747.85;;
48361;SDS011;34510;51.888;5.670;2023-05-10T06:54:22;828.50;;;725.25;;
48361;SDS011;34510;51.888;5.670;2023-05-10T06:59:25;835.70;;;726.22;;
48361;SDS011;34510;51.888;5.670;2023-05-10T07:04:27;849.60;;;729.30;;
48361;SDS011;34510;51.888;5.670;2023-05-10T07:09:29;844.53;;;728.50;;
48361;SDS011;34510;51.888;5.670;2023-05-10T07:14:31;835.17;;;720.28;;
48361;SDS011;34510;51.888;5.670;2023-05-10T07:19:36;850.35;;;731.97;;
48361;SDS011;34510;51.888;5.670;2023-05-10T07:24:38;850.10;;;722.25;;
48361;SDS011;34510;51.888;5.670;2023-05-10T07:29:40;855.60;;;736.47;;
48361;SDS011;34510;51.888;5.670;2023-05-10T07:34:42;864.95;;;763.17;;
48361;SDS011;34510;51.888;5.670;2023-05-10T07:39:44;834.92;;;744.72;;
48361;SDS011;34510;51.888;5.670;2023-05-10T07:45:00;831.08;;;743.72;;
48361;SDS011;34510;51.888;5.670;2023-05-10T07:50:02;836.95;;;750.70;;
48361;SDS011;34510;51.888;5.670;2023-05-10T07:55:05;835.08;;;748.85;;
48361;SDS011;34510;51.888;5.670;2023-05-10T08:00:09;835.20;;;746.80;;
48361;SDS011;34510;51.888;5.670;2023-05-10T08:05:17;837.58;;;749.95;;
48361;SDS011;34510;51.888;5.670;2023-05-10T08:10:20;846.45;;;757.90;;
48361;SDS011;34510;51.888;5.670;2023-05-10T08:15:22;817.97;;;723.28;;
48361;SDS011;34510;51.888;5.670;2023-05-10T08:20:24;844.30;;;752.53;;
48361;SDS011;34510;51.888;5.670;2023-05-10T08:25:27;866.15;;;773.42;;
48361;SDS011;34510;51.888;5.670;2023-05-10T08:30:29;863.95;;;769.40;;
48361;SDS011;34510;51.888;5.670;2023-05-10T08:35:36;871.17;;;776.33;;
48361;SDS011;34510;51.888;5.670;2023-05-10T08:40:41;851.97;;;758.60;;
48361;SDS011;34510;51.888;5.670;2023-05-10T08:45:44;847.85;;;755.40;;
48361;SDS011;34510;51.888;5.670;2023-05-10T08:50:52;848.10;;;755.13;;
48361;SDS011;34510;51.888;5.670;2023-05-10T08:56:01;847.22;;;754.63;;
48361;SDS011;34510;51.888;5.670;2023-05-10T09:01:07;868.42;;;775.15;;
48361;SDS011;34510;51.888;5.670;2023-05-10T09:06:11;868.10;;;775.08;;
48361;SDS011;34510;51.888;5.670;2023-05-10T09:11:14;907.92;;;813.05;;
48361;SDS011;34510;51.888;5.670;2023-05-10T09:16:20;919.83;;;824.75;;
48361;SDS011;34510;51.888;5.670;2023-05-10T09:21:23;946.17;;;849.90;;
48361;SDS011;34510;51.888;5.670;2023-05-10T09:26:26;942.58;;;846.80;;
48361;SDS011;34510;51.888;5.670;2023-05-10T09:31:47;934.13;;;838.53;;
48361;SDS011;34510;51.888;5.670;2023-05-10T09:36:53;932.65;;;839.45;;
48361;SDS011;34510;51.888;5.670;2023-05-10T09:41:59;956.92;;;860.42;;
48361;SDS011;34510;51.888;5.670;2023-05-10T09:47:06;935.63;;;841.30;;
48361;SDS011;34510;51.888;5.670;2023-05-10T09:52:11;935.63;;;844.45;;
48361;SDS011;34510;51.888;5.670;2023-05-10T09:57:22;910.40;;;818.65;;
48361;SDS011;34510;51.888;5.670;2023-05-10T10:02:27;926.70;;;834.58;;
48361;SDS011;34510;51.888;5.670;2023-05-10T10:07:30;924.55;;;834.42;;
48361;SDS011;34510;51.888;5.670;2023-05-10T10:12:33;916.42;;;826.83;;
48361;SDS011;34510;51.888;5.670;2023-05-10T10:17:35;933.40;;;842.33;;
48361;SDS011;34510;51.888;5.670;2023-05-10T10:22:39;949.65;;;854.25;;
48361;SDS011;34510;51.888;5.670;2023-05-10T10:27:47;939.00;;;845.28;;
48361;SDS011;34510;51.888;5.670;2023-05-10T10:38:54;947.42;;;852.03;;
48361;SDS011;34510;51.888;5.670;2023-05-10T10:49:29;972.63;;;875.00;;
48361;SDS011;34510;51.888;5.670;2023-05-10T10:54:34;963.92;;;867.28;;
48361;SDS011;34510;51.888;5.670;2023-05-10T10:59:40;990.63;;;892.28;;
48361;SDS011;34510;51.888;5.670;2023-05-10T11:04:44;986.58;;;888.83;;
48361;SDS011;34510;51.888;5.670;2023-05-10T11:09:48;993.53;;;895.70;;
48361;SDS011;34510;51.888;5.670;2023-05-10T11:14:50;998.05;;;900.22;;
48361;SDS011;34510;51.888;5.670;2023-05-10T11:20:06;1011.17;;;912.03;;
48361;SDS011;34510;51.888;5.670;2023-05-10T11:25:11;1014.55;;;915.30;;
48361;SDS011;34510;51.888;5.670;2023-05-10T11:30:15;1015.45;;;916.83;;
48361;SDS011;34510;51.888;5.670;2023-05-10T11:35:18;1026.72;;;928.05;;
48361;SDS011;34510;51.888;5.670;2023-05-10T11:40:29;1051.65;;;950.88;;
48361;SDS011;34510;51.888;5.670;2023-05-10T11:45:32;1043.03;;;942.75;;
48361;SDS011;34510;51.888;5.670;2023-05-10T11:50:34;1050.82;;;950.78;;
48361;SDS011;34510;51.888;5.670;2023-05-10T11:55:36;1041.82;;;941.60;;
48361;SDS011;34510;51.888;5.670;2023-05-10T12:00:38;1040.63;;;940.28;;
48361;SDS011;34510;51.888;5.670;2023-05-10T12:05:40;1032.15;;;932.97;;
48361;SDS011;34510;51.888;5.670;2023-05-10T12:10:43;1034.05;;;934.88;;
48361;SDS011;34510;51.888;5.670;2023-05-10T12:15:47;1039.97;;;939.97;;
48361;SDS011;34510;51.888;5.670;2023-05-10T12:20:51;1020.28;;;921.85;;
48361;SDS011;34510;51.888;5.670;2023-05-10T12:26:01;1015.25;;;917.20;;
48361;SDS011;34510;51.888;5.670;2023-05-10T12:31:05;1039.53;;;939.55;;
48361;SDS011;34510;51.888;5.670;2023-05-10T12:36:08;1034.82;;;934.97;;
48361;SDS011;34510;51.888;5.670;2023-05-10T12:41:13;1016.08;;;917.20;;
48361;SDS011;34510;51.888;5.670;2023-05-10T12:46:17;1002.38;;;903.47;;
48361;SDS011;34510;51.888;5.670;2023-05-10T12:51:19;993.83;;;895.45;;
48361;SDS011;34510;51.888;5.670;2023-05-10T12:56:24;975.28;;;877.53;;
48361;SDS011;34510;51.888;5.670;2023-05-10T13:01:25;974.78;;;877.30;;
48361;SDS011;34510;51.888;5.670;2023-05-10T13:06:27;961.67;;;864.80;;
48361;SDS011;34510;51.888;5.670;2023-05-10T13:11:30;966.92;;;869.72;;
48361;SDS011;34510;51.888;5.670;2023-05-10T13:16:32;957.00;;;861.08;;
48361;SDS011;34510;51.888;5.670;2023-05-10T13:21:40;956.53;;;860.50;;
48361;SDS011;34510;51.888;5.670;2023-05-10T13:26:45;960.08;;;863.25;;
48361;SDS011;34510;51.888;5.670;2023-05-10T13:31:48;959.85;;;863.10;;
48361;SDS011;34510;51.888;5.670;2023-05-10T13:36:54;952.47;;;856.40;;
48361;SDS011;34510;51.888;5.670;2023-05-10T13:42:00;957.40;;;862.78;;
48361;SDS011;34510;51.888;5.670;2023-05-10T13:47:02;950.55;;;857.63;;
48361;SDS011;34510;51.888;5.670;2023-05-10T13:52:04;948.70;;;856.28;;
48361;SDS011;34510;51.888;5.670;2023-05-10T13:57:08;940.65;;;848.58;;
48361;SDS011;34510;51.888;5.670;2023-05-10T14:02:10;967.78;;;876.17;;
48361;SDS011;34510;51.888;5.670;2023-05-10T14:07:14;951.45;;;859.17;;
48361;SDS011;34510;51.888;5.670;2023-05-10T14:12:16;943.33;;;848.78;;
48361;SDS011;34510;51.888;5.670;2023-05-10T14:17:18;959.72;;;863.08;;
48361;SDS011;34510;51.888;5.670;2023-05-10T14:22:20;929.65;;;834.25;;
48361;SDS011;34510;51.888;5.670;2023-05-10T14:27:24;916.30;;;821.67;;
48361;SDS011;34510;51.888;5.670;2023-05-10T14:32:26;920.25;;;824.70;;
48361;SDS011;34510;51.888;5.670;2023-05-10T14:37:29;909.45;;;814.72;;
48361;SDS011;34510;51.888;5.670;2023-05-10T14:42:31;939.55;;;843.30;;
48361;SDS011;34510;51.888;5.670;2023-05-10T14:47:33;928.08;;;832.30;;
48361;SDS011;34510;51.888;5.670;2023-05-10T14:52:34;924.05;;;828.88;;
48361;SDS011;34510;51.888;5.670;2023-05-10T14:57:40;928.20;;;832.97;;
48361;SDS011;34510;51.888;5.670;2023-05-10T15:02:43;942.17;;;846.22;;
48361;SDS011;34510;51.888;5.670;2023-05-10T15:07:49;951.13;;;854.97;;
48361;SDS011;34510;51.888;5.670;2023-05-10T15:12:51;940.17;;;844.78;;
48361;SDS011;34510;51.888;5.670;2023-05-10T15:17:53;956.42;;;860.38;;
48361;SDS011;34510;51.888;5.670;2023-05-10T15:22:57;962.35;;;865.58;;
48361;SDS011;34510;51.888;5.670;2023-05-10T15:27:59;947.90;;;852.20;;
48361;SDS011;34510;51.888;5.670;2023-05-10T15:33:01;968.40;;;871.47;;
48361;SDS011;34510;51.888;5.670;2023-05-10T15:38:13;953.50;;;857.65;;
48361;SDS011;34510;51.888;5.670;2023-05-10T15:43:16;951.38;;;855.92;;
48361;SDS011;34510;51.888;5.670;2023-05-10T15:48:18;962.30;;;866.33;;
48361;SDS011;34510;51.888;5.670;2023-05-10T15:53:20;958.90;;;862.67;;
48361;SDS011;34510;51.888;5.670;2023-05-10T15:58:25;940.38;;;845.10;;
48361;SDS011;34510;51.888;5.670;2023-05-10T16:03:27;946.25;;;850.60;;
48361;SDS011;34510;51.888;5.670;2023-05-10T16:08:29;933.22;;;838.13;;
48361;SDS011;34510;51.888;5.670;2023-05-10T16:13:31;947.40;;;851.22;;
48361;SDS011;34510;51.888;5.670;2023-05-10T16:18:33;964.95;;;868.30;;
48361;SDS011;34510;51.888;5.670;2023-05-10T16:23:36;958.85;;;862.30;;
48361;SDS011;34510;51.888;5.670;2023-05-10T16:28:38;958.38;;;862.08;;
48361;SDS011;34510;51.888;5.670;2023-05-10T16:33:42;954.95;;;859.15;;
48361;SDS011;34510;51.888;5.670;2023-05-10T16:38:45;943.78;;;848.20;;
48361;SDS011;34510;51.888;5.670;2023-05-10T16:43:47;941.40;;;846.10;;
48361;SDS011;34510;51.888;5.670;2023-05-10T16:48:49;938.45;;;843.30;;
48361;SDS011;34510;51.888;5.670;2023-05-10T16:53:52;951.25;;;855.22;;
48361;SDS011;34510;51.888;5.670;2023-05-10T16:58:54;951.22;;;855.05;;
48361;SDS011;34510;51.888;5.670;2023-05-10T17:03:56;953.67;;;857.65;;
48361;SDS011;34510;51.888;5.670;2023-05-10T17:08:58;938.20;;;842.95;;
48361;SDS011;34510;51.888;5.670;2023-05-10T17:14:01;951.17;;;854.97;;
48361;SDS011;34510;51.888;5.670;2023-05-10T17:19:03;957.42;;;861.00;;
48361;SDS011;34510;51.888;5.670;2023-05-10T17:24:06;962.97;;;865.92;;
48361;SDS011;34510;51.888;5.670;2023-05-10T17:29:09;968.90;;;871.72;;
48361;SDS011;34510;51.888;5.670;2023-05-10T17:34:11;948.35;;;852.53;;
48361;SDS011;34510;51.888;5.670;2023-05-10T17:39:14;943.25;;;847.55;;
48361;SDS011;34510;51.888;5.670;2023-05-10T17:44:16;936.50;;;840.78;;
48361;SDS011;34510;51.888;5.670;2023-05-10T17:49:18;953.22;;;856.55;;
48361;SDS011;34510;51.888;5.670;2023-05-10T17:54:34;934.13;;;838.55;;
48361;SDS011;34510;51.888;5.670;2023-05-10T17:59:36;922.53;;;827.28;;
48361;SDS011;34510;51.888;5.670;2023-05-10T18:04:38;902.30;;;809.05;;
48361;SDS011;34510;51.888;5.670;2023-05-10T18:09:41;903.25;;;811.05;;
48361;SDS011;34510;51.888;5.670;2023-05-10T18:14:43;899.72;;;807.90;;
48361;SDS011;34510;51.888;5.670;2023-05-10T18:19:46;896.25;;;803.90;;
48361;SDS011;34510;51.888;5.670;2023-05-10T18:24:48;907.53;;;814.60;;
48361;SDS011;34510;51.888;5.670;2023-05-10T18:29:50;913.38;;;818.72;;
48361;SDS011;34510;51.888;5.670;2023-05-10T18:34:52;911.97;;;817.63;;
48361;SDS011;34510;51.888;5.670;2023-05-10T18:39:56;900.17;;;806.28;;
48361;SDS011;34510;51.888;5.670;2023-05-10T18:44:58;898.95;;;804.92;;
48361;SDS011;34510;51.888;5.670;2023-05-10T18:50:01;910.33;;;817.45;;
48361;SDS011;34510;51.888;5.670;2023-05-10T19:00:10;897.03;;;804.00;;
48361;SDS011;34510;51.888;5.670;2023-05-10T19:05:13;889.10;;;797.22;;
48361;SDS011;34510;51.888;5.670;2023-05-10T19:10:15;897.35;;;802.47;;
48361;SDS011;34510;51.888;5.670;2023-05-10T19:15:17;903.45;;;809.65;;
48361;SDS011;34510;51.888;5.670;2023-05-10T19:20:22;905.67;;;811.30;;
48361;SDS011;34510;51.888;5.670;2023-05-10T19:25:25;904.72;;;809.92;;
48361;SDS011;34510;51.888;5.670;2023-05-10T19:30:29;887.47;;;793.45;;
48361;SDS011;34510;51.888;5.670;2023-05-10T19:35:32;904.72;;;809.35;;
48361;SDS011;34510;51.888;5.670;2023-05-10T19:40:34;914.72;;;818.92;;
48361;SDS011;34510;51.888;5.670;2023-05-10T19:45:36;894.55;;;799.65;;
48361;SDS011;34510;51.888;5.670;2023-05-10T19:50:41;884.30;;;789.95;;
48361;SDS011;34510;51.888;5.670;2023-05-10T19:55:43;888.50;;;794.05;;
48361;SDS011;34510;51.888;5.670;2023-05-10T20:00:45;868.85;;;774.80;;
48361;SDS011;34510;51.888;5.670;2023-05-10T20:05:47;860.55;;;767.00;;
48361;SDS011;34510;51.888;5.670;2023-05-10T20:10:49;854.85;;;760.85;;
48361;SDS011;34510;51.888;5.670;2023-05-10T20:15:55;850.10;;;756.67;;
48361;SDS011;34510;51.888;5.670;2023-05-10T20:20:59;855.90;;;762.38;;
48361;SDS011;34510;51.888;5.670;2023-05-10T20:26:01;858.30;;;764.83;;
48361;SDS011;34510;51.888;5.670;2023-05-10T20:31:03;861.40;;;767.83;;
48361;SDS011;34510;51.888;5.670;2023-05-10T20:36:05;851.45;;;758.53;;
48361;SDS011;34510;51.888;5.670;2023-05-10T20:41:09;853.13;;;759.33;;
48361;SDS011;34510;51.888;5.670;2023-05-10T20:46:11;861.45;;;767.47;;
48361;SDS011;34510;51.888;5.670;2023-05-10T20:51:14;850.15;;;756.92;;
48361;SDS011;34510;51.888;5.670;2023-05-10T20:56:16;855.35;;;762.20;;
48361;SDS011;34510;51.888;5.670;2023-05-10T21:01:19;854.08;;;760.80;;
48361;SDS011;34510;51.888;5.670;2023-05-10T21:06:24;849.90;;;756.33;;
48361;SDS011;34510;51.888;5.670;2023-05-10T21:11:26;838.92;;;746.53;;
48361;SDS011;34510;51.888;5.670;2023-05-10T21:16:28;845.05;;;751.83;;
48361;SDS011;34510;51.888;5.670;2023-05-10T21:21:30;833.33;;;741.20;;
48361;SDS011;34510;51.888;5.670;2023-05-10T21:26:33;829.20;;;736.00;;
48361;SDS011;34510;51.888;5.670;2023-05-10T21:31:36;845.75;;;753.38;;
48361;SDS011;34510;51.888;5.670;2023-05-10T21:36:38;845.65;;;753.30;;
48361;SDS011;34510;51.888;5.670;2023-05-10T21:41:40;850.92;;;758.00;;
48361;SDS011;34510;51.888;5.670;2023-05-10T21:46:42;841.63;;;749.08;;
48361;SDS011;34510;51.888;5.670;2023-05-10T21:51:44;830.63;;;738.17;;
48361;SDS011;34510;51.888;5.670;2023-05-10T21:56:46;844.97;;;752.25;;
48361;SDS011;34510;51.888;5.670;2023-05-10T22:01:49;839.40;;;733.50;;
48361;SDS011;34510;51.888;5.670;2023-05-10T22:06:51;835.78;;;743.05;;
48361;SDS011;34510;51.888;5.670;2023-05-10T22:11:54;836.35;;;735.30;;
48361;SDS011;34510;51.888;5.670;2023-05-10T22:17:04;841.03;;;746.25;;
48361;SDS011;34510;51.888;5.670;2023-05-10T22:22:07;843.72;;;751.25;;
48361;SDS011;34510;51.888;5.670;2023-05-10T22:27:09;851.90;;;758.45;;
48361;SDS011;34510;51.888;5.670;2023-05-10T22:32:11;838.13;;;742.47;;
48361;SDS011;34510;51.888;5.670;2023-05-10T22:37:13;831.25;;;736.97;;
48361;SDS011;34510;51.888;5.670;2023-05-10T22:42:20;835.75;;;743.20;;
48361;SDS011;34510;51.888;5.670;2023-05-10T22:47:22;832.50;;;732.92;;
48361;SDS011;34510;51.888;5.670;2023-05-10T22:52:31;838.58;;;736.28;;
48361;SDS011;34510;51.888;5.670;2023-05-10T22:57:32;826.25;;;717.15;;
48361;SDS011;34510;51.888;5.670;2023-05-10T23:02:34;836.92;;;739.15;;
48361;SDS011;34510;51.888;5.670;2023-05-10T23:07:37;830.40;;;731.60;;
48361;SDS011;34510;51.888;5.670;2023-05-10T23:12:39;833.85;;;741.33;;
48361;SDS011;34510;51.888;5.670;2023-05-10T23:17:41;853.95;;;760.92;;
48361;SDS011;34510;51.888;5.670;2023-05-10T23:22:43;826.28;;;719.65;;
48361;SDS011;34510;51.888;5.670;2023-05-10T23:27:45;828.88;;;726.45;;
48361;SDS011;34510;51.888;5.670;2023-05-10T23:32:47;823.75;;;710.17;;
48361;SDS011;34510;51.888;5.670;2023-05-10T23:37:49;825.75;;;727.33;;
48361;SDS011;34510;51.888;5.670;2023-05-10T23:42:51;827.88;;;733.03;;
48361;SDS011;34510;51.888;5.670;2023-05-10T23:47:53;829.55;;;733.35;;
48361;SDS011;34510;51.888;5.670;2023-05-10T23:52:55;831.33;;;736.95;;
48361;SDS011;34510;51.888;5.670;2023-05-10T23:57:57;820.20;;;696.13;;
